Time;durP1;ratioP1;P1;durP2;ratioP2;P2;SDS_P1;SDS_P2;PMS_P1;PMS_P2;Temp;Humidity;BMP_temperature;BMP_pressure;BME280_temperature;BME280_humidity;BME280_pressure;Samples;Min_cycle;Max_cycle;Signal;HPM_P1;HPM_P2
2022/08/28 00:00:07;;;;;;;36.97;22.10;;;19.40;94.10;;;;;;5039130;28;20516;-71
2022/08/28 00:02:32;;;;;;;37.83;21.73;;;19.50;94.20;;;;;;5039244;28;20974;-72
2022/08/28 00:04:58;;;;;;;36.40;20.87;;;19.40;94.40;;;;;;5042382;28;20509;-73
2022/08/28 00:07:25;;;;;;;35.40;20.17;;;19.50;94.60;;;;;;5044295;28;20196;-70
2022/08/28 00:09:51;;;;;;;37.03;22.50;;;19.50;94.80;;;;;;5038796;28;20199;-71
2022/08/28 00:12:19;;;;;;;35.57;21.57;;;19.50;94.60;;;;;;5043929;28;20531;-73
2022/08/28 00:14:44;;;;;;;39.33;20.00;;;19.50;94.50;;;;;;5034700;28;20639;-70
2022/08/28 00:17:10;;;;;;;29.70;18.00;;;19.50;93.90;;;;;;5040267;28;20427;-71
2022/08/28 00:19:36;;;;;;;32.63;18.60;;;19.60;93.50;;;;;;5037113;28;20304;-73
2022/08/28 00:22:04;;;;;;;43.07;21.13;;;19.60;93.20;;;;;;5042796;28;20192;-72
2022/08/28 00:24:30;;;;;;;41.10;19.63;;;19.50;93.10;;;;;;5033552;28;20193;-72
2022/08/28 00:29:43;;;;;;;36.70;20.33;;;19.50;93.60;;;;;;5032186;28;20727;-70
2022/08/28 00:32:09;;;;;;;32.20;18.70;;;19.50;93.50;;;;;;5037008;28;20448;-72
2022/08/28 00:34:35;;;;;;;35.80;20.40;;;19.50;93.50;;;;;;5033992;28;20640;-73
2022/08/28 00:37:00;;;;;;;41.53;21.47;;;19.50;93.70;;;;;;5043272;28;20420;-71
2022/08/28 00:39:26;;;;;;;41.17;23.50;;;19.50;93.90;;;;;;5035867;28;20733;-72
2022/08/28 00:41:52;;;;;;;37.03;21.17;;;19.40;93.90;;;;;;5037793;28;20231;-70
2022/08/28 00:44:21;;;;;;;37.27;20.60;;;19.40;94.30;;;;;;5040546;28;20206;-73
2022/08/28 00:46:49;;;;;;;36.27;20.23;;;19.50;94.00;;;;;;5041486;28;20292;-72
2022/08/28 00:49:25;;;;;;;32.90;19.37;;;19.60;93.80;;;;;;5045880;28;20465;-72
2022/08/28 00:52:06;;;;;;;33.20;20.07;;;19.60;93.50;;;;;;5048152;28;20488;-71
2022/08/28 00:54:36;;;;;;;43.40;23.37;;;19.60;93.50;;;;;;5044179;28;20479;-72
2022/08/28 00:57:05;;;;;;;34.37;19.50;;;19.60;93.50;;;;;;5044274;28;20514;-72
2022/08/28 00:59:31;;;;;;;33.23;19.53;;;19.60;93.70;;;;;;5044803;28;20924;-71
2022/08/28 01:01:58;;;;;;;32.83;19.00;;;19.60;93.80;;;;;;5040550;28;20470;-73
2022/08/28 01:04:25;;;;;;;38.00;20.63;;;19.70;93.70;;;;;;5042120;28;20197;-71
2022/08/28 01:06:54;;;;;;;36.37;21.40;;;19.60;93.80;;;;;;5040654;28;20829;-72
2022/08/28 01:09:23;;;;;;;34.13;19.97;;;19.70;93.90;;;;;;5044049;28;20435;-71
2022/08/28 01:11:53;;;;;;;38.93;21.03;;;19.70;94.10;;;;;;5044158;28;20553;-71
2022/08/28 01:14:21;;;;;;;38.30;20.70;;;19.70;94.10;;;;;;5042277;28;20498;-72
2022/08/28 01:16:54;;;;;;;38.90;22.13;;;19.60;94.10;;;;;;5041971;28;20432;-71
2022/08/28 01:19:29;;;;;;;35.97;21.37;;;19.60;94.30;;;;;;5043554;28;20524;-71
2022/08/28 01:22:06;;;;;;;40.07;22.03;;;19.60;94.40;;;;;;5044805;28;20462;-72
2022/08/28 01:24:32;;;;;;;36.47;21.03;;;19.60;94.40;;;;;;5042127;28;20427;-71
2022/08/28 01:26:58;;;;;;;36.50;20.17;;;19.60;94.50;;;;;;5039574;28;21387;-72
2022/08/28 01:29:23;;;;;;;40.97;21.50;;;19.60;94.50;;;;;;5040406;28;20436;-71
2022/08/28 01:31:49;;;;;;;32.80;20.30;;;19.60;94.50;;;;;;5041782;28;20204;-72
2022/08/28 01:34:15;;;;;;;31.30;17.60;;;19.60;94.40;;;;;;5038082;28;20217;-71
2022/08/28 01:36:41;;;;;;;35.90;20.73;;;19.50;94.30;;;;;;5038710;28;20235;-71
2022/08/28 01:39:15;;;;;;;34.73;19.83;;;19.40;93.90;;;;;;5040921;28;20632;-71
2022/08/28 01:41:44;;;;;;;33.63;19.90;;;19.40;94.00;;;;;;5040910;28;20820;-71
2022/08/28 01:44:10;;;;;;;32.13;19.63;;;19.30;94.00;;;;;;5035936;28;20469;-70
2022/08/28 01:46:36;;;;;;;31.37;16.80;;;19.30;94.00;;;;;;5041705;28;20467;-71
2022/08/28 01:49:02;;;;;;;32.57;17.80;;;19.30;94.00;;;;;;5038452;28;20501;-71
2022/08/28 01:51:28;;;;;;;40.17;21.60;;;19.30;93.80;;;;;;5042752;28;20482;-71
2022/08/28 01:53:54;;;;;;;40.07;22.40;;;19.20;94.00;;;;;;5036090;28;20483;-72
2022/08/28 01:56:19;;;;;;;33.60;20.03;;;19.20;94.10;;;;;;5046280;28;20192;-70
2022/08/28 01:58:46;;;;;;;37.80;21.50;;;19.10;94.30;;;;;;5042948;28;20651;-72
2022/08/28 02:01:16;;;;;;;33.93;19.73;;;19.20;94.60;;;;;;5044653;28;20262;-71
2022/08/28 02:03:42;;;;;;;32.53;19.40;;;19.20;94.80;;;;;;5038150;28;20443;-72
2022/08/28 02:06:08;;;;;;;35.17;19.50;;;19.20;94.80;;;;;;5045233;28;20434;-73
2022/08/28 02:08:35;;;;;;;38.07;20.50;;;19.20;94.90;;;;;;5043000;28;20210;-71
2022/08/28 02:11:01;;;;;;;39.20;20.33;;;19.30;95.10;;;;;;5039609;28;20838;-71
2022/08/28 02:13:27;;;;;;;39.77;23.13;;;19.40;95.20;;;;;;5034158;28;20826;-70
2022/08/28 02:15:52;;;;;;;41.17;21.53;;;19.40;95.00;;;;;;5044544;28;20440;-71
2022/08/28 02:18:18;;;;;;;40.00;22.60;;;19.40;95.00;;;;;;5032164;28;20603;-70
2022/08/28 02:20:45;;;;;;;34.70;21.13;;;19.40;94.80;;;;;;5043912;28;20217;-72
2022/08/28 02:23:10;;;;;;;38.43;21.20;;;19.40;94.90;;;;;;5040116;28;20784;-72
2022/08/28 02:25:36;;;;;;;33.13;19.00;;;19.40;95.00;;;;;;5039619;28;20433;-71
2022/08/28 02:28:02;;;;;;;33.60;18.70;;;19.50;95.00;;;;;;5038374;28;20549;-71
2022/08/28 02:30:27;;;;;;;35.13;20.03;;;19.50;94.80;;;;;;5037073;28;20933;-71
2022/08/28 02:32:53;;;;;;;31.10;19.00;;;19.50;94.60;;;;;;5042072;28;20213;-71
2022/08/28 02:35:21;;;;;;;40.43;20.07;;;19.60;94.80;;;;;;5043511;28;20268;-70
2022/08/28 02:37:48;;;;;;;34.53;18.30;;;19.60;94.80;;;;;;5040981;28;20604;-70
2022/08/28 02:40:15;;;;;;;34.87;18.27;;;19.60;94.60;;;;;;5034610;28;20851;-72
2022/08/28 02:42:41;;;;;;;33.10;19.47;;;19.60;94.50;;;;;;5041223;28;20941;-70
2022/08/28 02:45:10;;;;;;;38.00;20.97;;;19.60;94.50;;;;;;5037570;28;20443;-71
2022/08/28 02:47:36;;;;;;;36.57;19.60;;;19.70;94.60;;;;;;5038723;28;20443;-69
2022/08/28 02:50:02;;;;;;;30.27;18.40;;;19.60;94.60;;;;;;5036986;28;21076;-69
2022/08/28 02:52:28;;;;;;;40.70;23.60;;;19.80;94.70;;;;;;5044008;28;20562;-70
2022/08/28 02:54:54;;;;;;;50.77;24.03;;;19.70;94.40;;;;;;5039581;28;20502;-68
2022/08/28 02:57:19;;;;;;;44.60;22.63;;;19.50;94.70;;;;;;5044399;28;20202;-73
2022/08/28 02:59:46;;;;;;;45.77;22.43;;;19.50;95.00;;;;;;5036131;28;20220;-70
2022/08/28 03:02:12;;;;;;;38.23;19.97;;;19.50;95.20;;;;;;5045605;28;20184;-70
2022/08/28 03:04:38;;;;;;;44.80;22.43;;;19.50;95.40;;;;;;5034730;28;20427;-71
2022/08/28 03:07:08;;;;;;;45.67;22.27;;;19.40;95.50;;;;;;5044666;28;20255;-70
2022/08/28 03:09:34;;;;;;;42.37;22.53;;;19.40;95.60;;;;;;5039104;28;20671;-70
2022/08/28 03:11:59;;;;;;;41.20;21.03;;;19.40;95.70;;;;;;5037158;28;20508;-68
2022/08/28 03:14:25;;;;;;;44.93;22.10;;;19.40;95.70;;;;;;5035907;28;20896;-69
2022/08/28 03:16:51;;;;;;;46.60;24.23;;;19.30;95.70;;;;;;5038709;28;20179;-69
2022/08/28 03:19:17;;;;;;;47.50;23.73;;;19.40;95.80;;;;;;5036355;28;20222;-69
2022/08/28 03:21:42;;;;;;;48.07;24.10;;;19.40;95.80;;;;;;5034304;28;21281;-71
2022/08/28 03:24:08;;;;;;;54.60;24.77;;;19.20;95.90;;;;;;5041763;28;20642;-71
2022/08/28 03:26:34;;;;;;;48.00;25.60;;;19.10;96.10;;;;;;5034926;28;20218;-72
2022/08/28 03:28:59;;;;;;;51.13;25.63;;;19.10;96.40;;;;;;5036910;28;20189;-69
2022/08/28 03:31:27;;;;;;;54.30;27.37;;;19.00;96.80;;;;;;5039372;28;20217;-69
2022/08/28 03:33:54;;;;;;;50.00;25.10;;;19.00;97.00;;;;;;5038481;28;20578;-69
2022/08/28 03:36:24;;;;;;;45.53;24.37;;;18.90;97.30;;;;;;5043096;28;20426;-69
2022/08/28 03:38:52;;;;;;;49.20;24.67;;;18.80;97.50;;;;;;5039604;28;20920;-68
2022/08/28 03:41:20;;;;;;;51.17;25.00;;;18.80;97.80;;;;;;5038666;28;20484;-69
2022/08/28 03:43:45;;;;;;;48.03;24.27;;;18.70;97.80;;;;;;5040515;28;20430;-68
2022/08/28 03:46:16;;;;;;;49.83;25.07;;;18.70;97.80;;;;;;5032922;28;20433;-69
2022/08/28 03:48:43;;;;;;;52.90;26.80;;;18.80;97.80;;;;;;5041076;28;20196;-68
2022/08/28 03:51:15;;;;;;;45.10;23.77;;;18.80;97.80;;;;;;5041014;28;20466;-72
2022/08/28 03:53:41;;;;;;;45.73;24.37;;;18.90;97.80;;;;;;5041424;28;20490;-68
2022/08/28 03:56:09;;;;;;;51.17;25.77;;;18.90;97.70;;;;;;5035978;28;20943;-69
2022/08/28 03:58:35;;;;;;;52.33;25.53;;;18.90;97.50;;;;;;5043710;28;20437;-68
2022/08/28 04:01:00;;;;;;;55.90;28.20;;;18.80;97.50;;;;;;5041877;28;20458;-70
2022/08/28 04:03:26;;;;;;;57.27;27.17;;;18.80;97.50;;;;;;5038488;28;20418;-71
2022/08/28 04:05:52;;;;;;;50.57;24.40;;;18.80;97.70;;;;;;5038429;28;20763;-72
2022/08/28 04:08:19;;;;;;;52.60;26.40;;;18.80;97.70;;;;;;5042102;28;20435;-69
2022/08/28 04:10:45;;;;;;;47.63;24.87;;;18.90;97.70;;;;;;5032597;28;20204;-70
2022/08/28 04:13:13;;;;;;;46.10;22.70;;;19.00;97.60;;;;;;5038392;28;20485;-70
2022/08/28 04:15:40;;;;;;;51.03;25.00;;;18.90;97.20;;;;;;5035465;28;20853;-71
2022/08/28 04:18:06;;;;;;;44.80;24.77;;;19.00;97.10;;;;;;5039939;28;20422;-70
2022/08/28 04:20:32;;;;;;;41.03;21.53;;;19.10;96.90;;;;;;5043252;28;20571;-70
2022/08/28 04:22:57;;;;;;;46.23;23.07;;;19.20;96.80;;;;;;5043201;28;20426;-69
2022/08/28 04:25:23;;;;;;;43.27;22.20;;;19.20;96.50;;;;;;5044312;28;21218;-69
2022/08/28 04:27:50;;;;;;;47.50;24.23;;;19.20;96.10;;;;;;5039273;28;20272;-69
2022/08/28 04:30:16;;;;;;;42.70;22.13;;;19.20;96.00;;;;;;5041152;28;20475;-69
2022/08/28 04:32:41;;;;;;;40.00;21.70;;;19.30;96.00;;;;;;5037715;28;20552;-72
2022/08/28 04:35:09;;;;;;;45.17;23.90;;;19.30;95.90;;;;;;5045052;28;20177;-70
2022/08/28 04:37:35;;;;;;;40.67;20.97;;;19.30;95.50;;;;;;5037004;28;20177;-70
2022/08/28 04:40:04;;;;;;;37.13;21.53;;;19.30;95.70;;;;;;5041050;28;20434;-69
2022/08/28 04:42:30;;;;;;;41.57;21.60;;;19.30;95.60;;;;;;5040190;28;20455;-70
2022/08/28 04:44:59;;;;;;;40.30;20.80;;;19.20;95.40;;;;;;5044391;28;20443;-70
2022/08/28 04:47:26;;;;;;;42.00;22.20;;;19.30;95.50;;;;;;5038929;28;20187;-69
2022/08/28 04:49:52;;;;;;;37.67;19.03;;;19.20;95.30;;;;;;5043627;28;20416;-70
2022/08/28 04:52:18;;;;;;;41.47;21.60;;;19.30;95.40;;;;;;5051779;28;20479;-69
2022/08/28 04:54:44;;;;;;;45.33;21.97;;;19.20;95.00;;;;;;5043756;28;20461;-71
2022/08/28 04:57:09;;;;;;;38.30;20.57;;;19.10;95.30;;;;;;5045191;28;20188;-69
2022/08/28 04:59:35;;;;;;;43.37;21.70;;;19.10;95.40;;;;;;5048780;28;20186;-71
2022/08/28 05:02:01;;;;;;;40.60;20.30;;;19.10;95.40;;;;;;5039087;28;20208;-69
2022/08/28 05:04:27;;;;;;;48.87;23.00;;;19.20;95.50;;;;;;5047534;28;20184;-70
2022/08/28 05:06:53;;;;;;;41.67;20.50;;;19.20;95.30;;;;;;5047279;28;20431;-70
2022/08/28 05:09:20;;;;;;;39.23;22.57;;;19.20;95.30;;;;;;5045188;28;20189;-69
2022/08/28 05:11:47;;;;;;;38.67;21.80;;;19.10;95.20;;;;;;5049149;28;20470;-69
2022/08/28 05:14:14;;;;;;;47.13;20.70;;;19.10;95.50;;;;;;5051261;28;20470;-68
2022/08/28 05:16:42;;;;;;;40.73;21.33;;;19.10;95.70;;;;;;5044609;28;20429;-75
2022/08/28 05:19:08;;;;;;;42.30;21.70;;;19.10;95.40;;;;;;5041052;28;20423;-71
2022/08/28 05:21:34;;;;;;;41.20;20.57;;;19.10;95.60;;;;;;5040370;28;20461;-70
2022/08/28 05:24:00;;;;;;;46.03;23.00;;;19.10;95.60;;;;;;5048071;28;20909;-71
2022/08/28 05:26:27;;;;;;;42.30;22.50;;;19.10;95.60;;;;;;5042486;28;20188;-68
2022/08/28 05:28:54;;;;;;;41.30;21.77;;;19.10;95.50;;;;;;5040284;28;20181;-69
2022/08/28 05:31:21;;;;;;;41.40;21.20;;;19.00;95.70;;;;;;5039013;28;20469;-70
2022/08/28 05:33:48;;;;;;;39.10;20.97;;;19.10;95.80;;;;;;5039184;28;20494;-69
2022/08/28 05:36:15;;;;;;;43.03;21.83;;;19.20;95.70;;;;;;5047035;28;20458;-72
2022/08/28 05:38:41;;;;;;;39.03;21.07;;;19.10;95.40;;;;;;5047331;28;20880;-71
2022/08/28 05:41:07;;;;;;;42.80;22.20;;;19.10;95.40;;;;;;5050494;28;20493;-68
2022/08/28 05:43:33;;;;;;;47.33;21.67;;;19.00;95.60;;;;;;5036843;28;20666;-72
2022/08/28 05:46:03;;;;;;;41.87;20.03;;;19.10;95.70;;;;;;5044530;28;20440;-73
2022/08/28 05:48:30;;;;;;;40.23;22.07;;;19.20;95.70;;;;;;5033150;28;20423;-73
2022/08/28 05:51:18;;;;;;;46.17;22.93;;;19.20;95.40;;;;;;5040417;28;20462;-71
2022/08/28 05:53:45;;;;;;;47.53;22.57;;;19.10;95.40;;;;;;5039785;28;20510;-72
2022/08/28 05:56:14;;;;;;;43.20;23.20;;;19.00;95.80;;;;;;5041215;28;20419;-74
2022/08/28 05:58:40;;;;;;;49.77;23.93;;;18.90;96.00;;;;;;5040432;28;20429;-70
2022/08/28 06:01:11;;;;;;;45.87;24.30;;;18.90;96.40;;;;;;5044013;28;20461;-72
2022/08/28 06:03:38;;;;;;;48.03;22.83;;;18.80;96.40;;;;;;5037421;28;20782;-71
2022/08/28 06:06:05;;;;;;;45.07;23.70;;;18.90;96.50;;;;;;5040300;28;20415;-71
2022/08/28 06:08:31;;;;;;;41.70;21.73;;;18.90;96.50;;;;;;5044913;28;20831;-74
2022/08/28 06:10:58;;;;;;;37.20;20.47;;;19.00;96.40;;;;;;5041484;28;20467;-72
2022/08/28 06:13:24;;;;;;;41.40;21.83;;;19.10;96.00;;;;;;5037843;28;20493;-72
2022/08/28 06:15:49;;;;;;;43.10;21.20;;;19.10;95.70;;;;;;5042598;28;20844;-72
2022/08/28 06:18:16;;;;;;;41.60;20.93;;;19.10;95.50;;;;;;5042068;28;20431;-70
2022/08/28 06:20:44;;;;;;;35.80;19.97;;;19.00;95.30;;;;;;5040597;28;20566;-71
2022/08/28 06:23:12;;;;;;;40.80;20.43;;;19.10;95.40;;;;;;5052429;28;20429;-71
2022/08/28 06:25:38;;;;;;;37.83;21.63;;;19.10;95.10;;;;;;5051116;28;20504;-73
2022/08/28 06:28:06;;;;;;;39.43;19.90;;;19.00;95.20;;;;;;5074189;28;20433;-72
2022/08/28 06:30:35;;;;;;;39.03;19.10;;;18.90;95.20;;;;;;5060814;28;20452;-70
2022/08/28 06:33:00;;;;;;;29.50;17.40;;;19.00;94.90;;;;;;5043424;28;21019;-70
2022/08/28 06:35:26;;;;;;;35.30;20.10;;;19.10;94.90;;;;;;5040306;28;20428;-70
2022/08/28 06:37:52;;;;;;;33.70;17.80;;;19.20;94.60;;;;;;5040240;28;20557;-72
2022/08/28 06:40:17;;;;;;;31.40;17.83;;;19.20;94.20;;;;;;5039837;28;20214;-71
2022/08/28 06:42:43;;;;;;;35.27;18.87;;;19.20;94.20;;;;;;5044759;28;20728;-71
2022/08/28 06:45:09;;;;;;;34.80;18.23;;;19.30;94.20;;;;;;5042939;28;20270;-70
2022/08/28 06:47:35;;;;;;;30.77;18.53;;;19.30;93.70;;;;;;5041948;28;20652;-71
2022/08/28 06:50:00;;;;;;;34.37;19.23;;;19.20;93.60;;;;;;5039891;28;20441;-72
2022/08/28 06:52:26;;;;;;;46.67;18.60;;;19.20;93.60;;;;;;5036838;28;20192;-72
2022/08/28 06:54:51;;;;;;;34.63;17.83;;;19.30;93.70;;;;;;5039269;28;20181;-71
2022/08/28 06:57:17;;;;;;;34.53;18.30;;;19.30;93.40;;;;;;5041195;28;20679;-71
2022/08/28 06:59:42;;;;;;;31.00;17.00;;;19.20;93.40;;;;;;5037972;28;20187;-71
2022/08/28 07:02:08;;;;;;;34.77;17.53;;;19.20;93.50;;;;;;5037150;28;20184;-73
2022/08/28 07:04:34;;;;;;;28.47;16.90;;;19.30;93.50;;;;;;5033781;28;20272;-73
2022/08/28 07:06:59;;;;;;;28.47;15.87;;;19.40;93.30;;;;;;5040731;28;20195;-70
2022/08/28 07:09:25;;;;;;;27.00;16.20;;;19.50;92.90;;;;;;5038597;28;20431;-74
2022/08/28 07:11:51;;;;;;;32.30;15.47;;;19.70;92.80;;;;;;5040606;28;20282;-74
2022/08/28 07:14:17;;;;;;;32.67;16.93;;;19.80;91.80;;;;;;5046924;28;20215;-72
2022/08/28 07:16:43;;;;;;;28.37;15.57;;;19.90;91.70;;;;;;5039776;28;20433;-73
2022/08/28 07:19:10;;;;;;;32.23;15.53;;;19.80;91.90;;;;;;5044495;28;20561;-72
2022/08/28 07:21:38;;;;;;;27.83;16.20;;;19.90;91.60;;;;;;5031870;28;20209;-71
2022/08/28 07:24:05;;;;;;;27.73;16.20;;;20.00;91.50;;;;;;5048077;28;20430;-71
2022/08/28 07:26:30;;;;;;;27.60;15.90;;;20.10;91.30;;;;;;5033313;28;20976;-73
2022/08/28 07:28:56;;;;;;;26.07;16.20;;;20.00;90.80;;;;;;5045255;28;20455;-72
2022/08/28 07:31:25;;;;;;;29.87;16.67;;;19.80;91.40;;;;;;5035116;28;20675;-70
2022/08/28 07:33:52;;;;;;;27.20;15.60;;;19.80;91.90;;;;;;5040006;28;20223;-70
2022/08/28 07:36:21;;;;;;;27.33;16.63;;;19.90;91.60;;;;;;5041686;28;20431;-70
2022/08/28 07:38:46;;;;;;;28.87;16.60;;;19.90;91.40;;;;;;5037777;28;20459;-72
2022/08/28 07:41:18;;;;;;;31.43;16.43;;;19.80;91.30;;;;;;5040794;28;21292;-72
2022/08/28 07:46:29;;;;;;;28.33;15.27;;;19.80;91.60;;;;;;5034174;28;20787;-70
2022/08/28 07:48:57;;;;;;;30.10;14.87;;;19.90;91.50;;;;;;5040724;28;20423;-71
2022/08/28 07:51:23;;;;;;;27.80;15.87;;;20.00;90.90;;;;;;5037136;28;20600;-70
2022/08/28 07:53:49;;;;;;;30.77;15.90;;;20.00;91.30;;;;;;5038886;28;20906;-70
2022/08/28 07:56:15;;;;;;;36.33;16.33;;;20.00;91.10;;;;;;5036221;28;20563;-71
2022/08/28 07:58:40;;;;;;;24.47;15.90;;;20.00;91.10;;;;;;5038355;28;20181;-70
2022/08/28 08:01:06;;;;;;;23.23;14.80;;;20.10;90.80;;;;;;5039830;28;20214;-72
2022/08/28 08:03:32;;;;;;;30.80;17.00;;;20.10;91.00;;;;;;5034548;28;20194;-71
2022/08/28 08:06:01;;;;;;;30.60;16.80;;;20.20;90.80;;;;;;5038439;28;20873;-73
2022/08/28 08:08:28;;;;;;;30.50;16.40;;;20.30;90.70;;;;;;5033730;28;20201;-70
2022/08/28 08:11:03;;;;;;;31.53;16.40;;;20.30;90.10;;;;;;5034165;28;20583;-72
2022/08/28 08:13:30;;;;;;;28.77;15.23;;;20.30;90.30;;;;;;5037675;28;20463;-71
2022/08/28 08:16:12;;;;;;;24.73;14.47;;;20.40;90.40;;;;;;5048129;28;20488;-70
2022/08/28 08:18:39;;;;;;;29.63;16.20;;;20.70;90.20;;;;;;5032644;28;20528;-72
2022/08/28 08:21:08;;;;;;;31.17;15.33;;;20.80;89.00;;;;;;5034173;28;20986;-71
2022/08/28 08:23:33;;;;;;;32.53;16.43;;;20.70;88.60;;;;;;5039198;28;20833;-70
2022/08/28 08:26:02;;;;;;;29.77;17.83;;;20.40;89.70;;;;;;5042877;28;20427;-73
2022/08/28 08:28:28;;;;;;;24.87;15.13;;;20.30;90.30;;;;;;5034013;28;20196;-72
2022/08/28 08:31:12;;;;;;;28.07;14.57;;;20.30;90.40;;;;;;5042565;28;20466;-71
2022/08/28 08:33:39;;;;;;;29.93;16.30;;;20.50;90.40;;;;;;5036509;28;20453;-72
2022/08/28 08:36:05;;;;;;;28.77;15.90;;;20.70;89.30;;;;;;5039000;28;20532;-72
2022/08/28 08:38:33;;;;;;;31.40;16.60;;;20.60;89.50;;;;;;5037624;28;20470;-72
2022/08/28 08:41:00;;;;;;;27.00;15.10;;;20.50;89.30;;;;;;5035142;28;20465;-72
2022/08/28 08:43:29;;;;;;;25.07;15.17;;;20.50;89.60;;;;;;5037025;28;20922;-71
2022/08/28 08:45:55;;;;;;;32.67;16.27;;;20.70;89.50;;;;;;5034239;28;20523;-70
2022/08/28 08:48:28;;;;;;;29.43;16.73;;;20.90;88.70;;;;;;5039798;28;20522;-70
2022/08/28 08:50:57;;;;;;;22.43;13.60;;;21.00;88.10;;;;;;5035025;28;20245;-70
2022/08/28 08:53:45;;;;;;;28.73;15.17;;;21.10;88.00;;;;;;5038305;28;20545;-71
2022/08/28 08:56:16;;;;;;;23.93;15.60;;;21.20;87.10;;;;;;5031074;28;21059;-72
2022/08/28 08:58:47;;;;;;;33.13;16.23;;;21.10;87.30;;;;;;5038893;28;20430;-72
2022/08/28 09:01:22;;;;;;;31.67;17.50;;;20.90;88.00;;;;;;5039483;28;20480;-72
2022/08/28 09:04:12;;;;;;;32.43;16.33;;;20.80;88.40;;;;;;5040336;28;20544;-72
2022/08/28 09:06:48;;;;;;;25.83;15.17;;;20.80;88.70;;;;;;5046347;28;20973;-72
2022/08/28 09:09:28;;;;;;;22.13;15.50;;;21.10;87.70;;;;;;5044162;28;20428;-72
2022/08/28 09:11:57;;;;;;;27.90;15.90;;;21.40;87.10;;;;;;5048282;28;20535;-72
2022/08/28 09:14:31;;;;;;;26.43;15.37;;;21.50;85.90;;;;;;5043000;28;20559;-72
2022/08/28 09:16:58;;;;;;;27.47;16.10;;;21.40;86.00;;;;;;5049385;28;20479;-74
2022/08/28 09:19:23;;;;;;;32.93;16.43;;;21.00;87.30;;;;;;5038413;28;20444;-73
2022/08/28 09:21:50;;;;;;;23.33;14.07;;;20.80;88.00;;;;;;5049077;28;20826;-72
2022/08/28 09:24:20;;;;;;;25.50;15.40;;;21.10;88.00;;;;;;5043380;28;20518;-74
2022/08/28 09:27:02;;;;;;;25.60;14.90;;;21.60;86.60;;;;;;5043794;28;20429;-74
2022/08/28 09:29:38;;;;;;;29.10;15.13;;;21.80;84.60;;;;;;5041158;28;20434;-75
2022/08/28 09:32:28;;;;;;;23.47;15.13;;;22.30;83.60;;;;;;5042707;28;20501;-72
2022/08/28 09:35:22;;;;;;;26.60;14.80;;;22.30;81.70;;;;;;5037779;28;20465;-73
2022/08/28 09:37:48;;;;;;;20.00;11.97;;;22.10;83.00;;;;;;5034168;28;20439;-74
2022/08/28 09:40:24;;;;;;;19.87;12.20;;;22.40;83.30;;;;;;5044943;28;20516;-72
2022/08/28 09:46:03;;;;;;;24.93;13.60;;;22.80;80.50;;;;;;5041048;28;20409;-72
2022/08/28 09:48:42;;;;;;;19.97;13.30;;;22.30;81.40;;;;;;5037804;28;20440;-73
2022/08/28 09:51:07;;;;;;;24.90;15.00;;;22.30;81.50;;;;;;5038359;28;20591;-71
2022/08/28 09:53:56;;;;;;;23.07;13.33;;;22.00;82.70;;;;;;5038325;28;21003;-73
2022/08/28 09:56:27;;;;;;;21.30;12.33;;;22.40;81.70;;;;;;5035072;28;20188;-73
2022/08/28 09:58:58;;;;;;;18.87;12.50;;;22.80;80.50;;;;;;5046376;28;20560;-73
2022/08/28 10:01:46;;;;;;;24.10;12.77;;;23.00;78.40;;;;;;5038186;28;20488;-72
2022/08/28 10:04:40;;;;;;;20.73;12.73;;;23.20;78.00;;;;;;5040274;28;20938;-72
2022/08/28 10:07:27;;;;;;;19.57;11.77;;;23.50;77.40;;;;;;5041682;28;20901;-72
2022/08/28 10:10:05;;;;;;;19.83;12.67;;;23.20;77.00;;;;;;5040179;28;20975;-72
2022/08/28 10:12:50;;;;;;;19.40;12.47;;;22.80;78.60;;;;;;5039507;28;20943;-72
2022/08/28 10:15:27;;;;;;;19.93;12.10;;;22.60;78.30;;;;;;5032407;28;20431;-73
2022/08/28 10:18:10;;;;;;;20.60;12.20;;;22.60;79.50;;;;;;5042010;28;20504;-72
2022/08/28 10:20:55;;;;;;;20.13;12.10;;;22.50;80.00;;;;;;5038173;28;20462;-71
2022/08/28 10:23:49;;;;;;;19.07;11.90;;;22.70;79.30;;;;;;5036913;28;20417;-72
2022/08/28 10:26:20;;;;;;;18.40;11.40;;;23.00;78.30;;;;;;5040687;28;20831;-73
2022/08/28 10:29:00;;;;;;;16.53;11.70;;;23.20;77.40;;;;;;5036803;28;20894;-72
2022/08/28 10:31:42;;;;;;;19.03;11.70;;;23.00;77.10;;;;;;5042033;28;21050;-71
2022/08/28 10:34:09;;;;;;;15.47;10.83;;;22.90;77.60;;;;;;5031912;28;20458;-71
2022/08/28 10:36:36;;;;;;;16.90;11.40;;;22.80;78.60;;;;;;5039361;28;20428;-71
2022/08/28 10:39:18;;;;;;;17.80;10.90;;;23.00;78.10;;;;;;5042660;28;20452;-71
2022/08/28 10:41:52;;;;;;;19.23;11.70;;;23.10;77.30;;;;;;5038489;28;20460;-71
2022/08/28 10:44:53;;;;;;;20.37;12.40;;;23.20;77.40;;;;;;5036987;28;20420;-73
2022/08/28 10:47:22;;;;;;;18.77;12.10;;;23.70;75.20;;;;;;5014723;28;20445;-71
2022/08/28 10:49:52;;;;;;;15.57;10.60;;;23.70;73.70;;;;;;5017701;28;20435;-71
2022/08/28 10:52:21;;;;;;;15.57;9.90;;;23.50;73.20;;;;;;5015746;28;20491;-71
2022/08/28 10:54:50;;;;;;;20.87;10.87;;;23.50;73.00;;;;;;5020160;28;20525;-73
2022/08/28 10:57:30;;;;;;;16.57;10.07;;;23.40;72.90;;;;;;5013522;28;20467;-72
2022/08/28 10:59:57;;;;;;;13.63;10.00;;;23.40;73.30;;;;;;5019107;28;20422;-70
2022/08/28 11:02:25;;;;;;;19.10;11.47;;;23.70;72.70;;;;;;5014904;28;21033;-72
2022/08/28 11:04:54;;;;;;;13.27;8.87;;;24.10;70.50;;;;;;5018562;28;20423;-72
2022/08/28 11:07:44;;;;;;;14.87;10.17;;;24.40;70.10;;;;;;5015452;28;20430;-74
2022/08/28 11:10:36;;;;;;;13.97;9.93;;;24.60;68.50;;;;;;5016576;28;20474;-72
2022/08/28 11:13:04;;;;;;;13.13;9.33;;;23.90;70.20;;;;;;5015969;28;20611;-71
2022/08/28 11:15:30;;;;;;;17.17;9.47;;;24.00;68.00;;;;;;5015849;28;20431;-72
2022/08/28 11:18:41;;;;;;;11.83;8.63;;;24.20;68.60;;;;;;5014300;28;20447;-72
2022/08/28 11:21:25;;;;;;;17.53;10.13;;;24.00;69.90;;;;;;5020232;28;20551;-72
2022/08/28 11:24:04;;;;;;;14.73;10.07;;;24.60;69.10;;;;;;5031310;28;20999;-72
2022/08/28 11:26:45;;;;;;;17.60;11.40;;;24.90;69.20;;;;;;5031507;28;20756;-72
2022/08/28 11:29:10;;;;;;;22.20;10.83;;;24.40;69.40;;;;;;5035360;28;20414;-71
2022/08/28 11:31:39;;;;;;;15.50;10.00;;;24.00;70.50;;;;;;5041417;28;20840;-71
2022/08/28 11:34:05;;;;;;;15.03;10.10;;;23.90;71.60;;;;;;5043080;28;20723;-72
2022/08/28 11:36:31;;;;;;;18.30;10.23;;;23.70;72.60;;;;;;5046410;28;20508;-72
2022/08/28 11:39:16;;;;;;;14.77;10.63;;;23.70;71.70;;;;;;5040959;28;20473;-73
2022/08/28 11:42:12;;;;;;;15.17;10.33;;;23.60;72.40;;;;;;5041534;28;20460;-73
2022/08/28 11:44:43;;;;;;;12.53;9.80;;;24.10;71.70;;;;;;5027132;28;20479;-71
2022/08/28 11:47:44;;;;;;;15.10;9.30;;;24.50;70.40;;;;;;5037807;28;20427;-72
2022/08/28 11:50:22;;;;;;;17.40;11.20;;;24.80;69.50;;;;;;5031571;28;20467;-72
2022/08/28 11:53:21;;;;;;;13.93;10.10;;;24.60;68.50;;;;;;5040019;28;20426;-72
2022/08/28 11:56:03;;;;;;;15.10;9.33;;;24.70;68.60;;;;;;5038128;28;20512;-73
2022/08/28 11:58:53;;;;;;;13.50;9.57;;;24.80;68.20;;;;;;5032749;28;20428;-72
2022/08/28 12:01:28;;;;;;;17.80;10.87;;;24.80;68.20;;;;;;5038362;28;20537;-72
2022/08/28 12:03:58;;;;;;;15.17;9.93;;;24.60;68.50;;;;;;5035554;28;21086;-72
2022/08/28 12:06:51;;;;;;;12.93;9.87;;;24.60;68.60;;;;;;5038397;28;20425;-73
2022/08/28 12:09:37;;;;;;;18.17;10.93;;;24.90;67.30;;;;;;5041199;28;21090;-72
2022/08/28 12:12:05;;;;;;;15.27;8.33;;;24.60;67.30;;;;;;5037219;28;20988;-72
2022/08/28 12:14:54;;;;;;;10.53;8.23;;;25.20;66.60;;;;;;5036046;28;20463;-72
2022/08/28 12:17:29;;;;;;;12.20;8.03;;;25.50;66.40;;;;;;5031532;28;20422;-72
2022/08/28 12:20:09;;;;;;;10.67;8.53;;;25.90;65.10;;;;;;5039744;28;20449;-71
2022/08/28 12:22:51;;;;;;;15.57;9.43;;;25.90;64.50;;;;;;5036848;28;20419;-72
2022/08/28 12:25:37;;;;;;;14.00;9.70;;;25.80;65.00;;;;;;5039300;28;20431;-72
2022/08/28 12:28:36;;;;;;;14.47;10.30;;;25.90;65.40;;;;;;5040729;28;20417;-71
2022/08/28 12:31:04;;;;;;;16.67;10.67;;;25.70;65.70;;;;;;5042442;28;20458;-71
2022/08/28 12:33:36;;;;;;;16.20;9.80;;;24.70;68.60;;;;;;5039936;28;20471;-72
2022/08/28 12:36:04;;;;;;;16.50;11.33;;;24.70;68.60;;;;;;5044594;28;20416;-71
2022/08/28 12:38:32;;;;;;;13.50;9.40;;;24.30;68.90;;;;;;5046870;28;20461;-71
2022/08/28 12:40:58;;;;;;;11.53;8.30;;;24.30;69.10;;;;;;5046897;28;21361;-72
2022/08/28 12:43:34;;;;;;;14.13;9.27;;;24.40;67.60;;;;;;5043601;28;20551;-71
2022/08/28 12:46:06;;;;;;;13.67;9.57;;;24.80;67.90;;;;;;5039602;28;20176;-73
2022/08/28 12:48:47;;;;;;;13.83;10.00;;;25.00;69.10;;;;;;5043479;28;20933;-73
2022/08/28 12:51:18;;;;;;;14.40;10.23;;;25.30;68.60;;;;;;5042628;28;21019;-73